Terminal Aerodrome Forecast
Issued by NWS

Home | Current Version | Previous Version | Text Only | Print | Product List | Glossary On
Versions: 1 2 3 4 5 6 7 8 9 10 11 12 13 14 15 16 17 18 19 20 21 22 23 24 25 26 27 28 29
000
FTUS43 KFGF 261950 AAA
TAFDVL
TAF AMD
KDVL 261950Z 2620/2718 02013G23KT P6SM OVC020
     FM270500 03006KT P6SM BKN015
     FM271400 36010KT P6SM BKN025
     FM271500 36012KT P6SM SCT030=

USA.gov is the U.S. government's official web portal to all federal, state and local government web resources and services.